IDB weather

Idre Airport
Idre, Dalarnas län, Sweden

Public forecast

Using degrees Celsius for public forecast. Weather courtesy of forecast.io.

Closest aviation weather report (METAR) to Idre Airport

Closest report is Røros Airport, 56.8 nm (105.3 km) NW. Retrieved 2020/04/02 17:20 UTC (36 minutes ago):

ENRO 021720Z 27011KT 240V300 9999 FEW035 SCT046 M04/M09 Q0971

Closest aviation forecast (TAF) to Idre Airport

Closest forecast is Trondheim Airport Værnes, 107.0 nm (198.2 km) NNW. Retrieved 2020/04/02 12:00 UTC (6 hours ago):

TAF COR ENVA 021100Z 0212/0312 25015KT 9999 -SHRA FEW015TCU BKN035 TEMPO 0212/0221 1200 SHSNGS VV009 TEMPO 0220/0308 30022G35KT 0500 SHSN VV005 PROB30 TEMPO 0221/0309 TS